Time;durP1;ratioP1;P1;durP2;ratioP2;P2;SDS_P1;SDS_P2;PMS_P1;PMS_P2;Temp;Humidity;BMP_temperature;BMP_pressure;BME280_temperature;BME280_humidity;BME280_pressure;Samples;Min_cycle;Max_cycle;Signal;HPM_P1;HPM_P2
2021/05/08 00:00:41;;;;;;;1999.90;999.90;;;6.30;99.90;;;;;;4955553;28;20062;-90
2021/05/08 00:03:08;;;;;;;1999.90;999.90;;;6.30;99.90;;;;;;4956818;28;20051;-90
2021/05/08 00:05:35;;;;;;;1999.90;999.90;;;6.30;99.90;;;;;;4963760;28;20561;-90
2021/05/08 00:08:02;;;;;;;1999.90;999.90;;;6.30;99.90;;;;;;4959738;29;20051;-91
2021/05/08 00:10:29;;;;;;;1999.90;999.90;;;6.30;99.90;;;;;;4969928;28;20043;-90
2021/05/08 00:12:57;;;;;;;1999.90;999.90;;;6.20;99.90;;;;;;4968659;28;20035;-90
2021/05/08 00:15:25;;;;;;;1999.90;999.90;;;6.20;99.90;;;;;;4976302;29;20039;-89
2021/05/08 00:17:52;;;;;;;1999.90;999.90;;;6.20;99.90;;;;;;4976121;28;20079;-89
2021/05/08 00:20:20;;;;;;;1999.90;999.90;;;6.20;99.90;;;;;;4973710;28;20036;-90
2021/05/08 00:22:47;;;;;;;1999.90;999.90;;;6.20;99.90;;;;;;4960745;28;20070;-90
2021/05/08 00:25:14;;;;;;;1999.90;999.90;;;6.20;99.90;;;;;;4958533;28;20051;-90
2021/05/08 00:28:00;;;;;;;1999.90;999.90;;;6.20;99.90;;;;;;4953388;28;20070;-90
2021/05/08 00:30:27;;;;;;;1999.90;999.90;;;6.10;99.90;;;;;;4954329;28;20546;-90
2021/05/08 00:32:54;;;;;;;1999.90;999.90;;;6.20;99.90;;;;;;4965121;28;20102;-89
2021/05/08 00:35:21;;;;;;;1999.90;999.90;;;6.10;99.90;;;;;;4969665;28;20067;-90
2021/05/08 00:37:48;;;;;;;1999.90;999.90;;;6.10;99.90;;;;;;4969310;28;20059;-90
2021/05/08 00:40:15;;;;;;;1999.90;999.90;;;6.10;99.90;;;;;;4967713;29;20071;-90
2021/05/08 00:42:42;;;;;;;1999.90;999.90;;;6.10;99.90;;;;;;4967584;28;20063;-90
2021/05/08 00:45:11;;;;;;;1999.90;999.90;;;6.10;99.90;;;;;;4970786;28;20083;-91
2021/05/08 00:47:42;;;;;;;1999.90;999.90;;;6.10;99.90;;;;;;4966765;28;20046;-89
2021/05/08 00:50:11;;;;;;;1999.90;999.90;;;6.10;99.90;;;;;;4957027;28;20087;-90
2021/05/08 00:52:38;;;;;;;1999.90;999.90;;;6.10;99.90;;;;;;4967416;28;20051;-90
2021/05/08 00:55:07;;;;;;;1999.90;999.90;;;6.10;99.90;;;;;;4960846;28;20063;-91
2021/05/08 00:57:37;;;;;;;1999.90;999.90;;;6.10;99.90;;;;;;4959886;28;20051;-90
2021/05/08 01:00:06;;;;;;;1999.90;999.90;;;6.00;99.90;;;;;;4951175;28;20055;-90
2021/05/08 01:02:35;;;;;;;1999.90;999.90;;;6.00;99.90;;;;;;4960581;28;20074;-92
2021/05/08 01:05:02;;;;;;;1999.90;999.90;;;6.00;99.90;;;;;;4950557;28;20055;-91
2021/05/08 01:07:30;;;;;;;1999.90;999.90;;;6.00;99.90;;;;;;4959577;28;20082;-91
2021/05/08 01:09:57;;;;;;;1999.90;999.90;;;6.00;99.90;;;;;;4945178;28;20097;-90
2021/05/08 01:12:24;;;;;;;1999.90;999.90;;;6.00;99.90;;;;;;4959487;29;20106;-92
2021/05/08 01:14:53;;;;;;;1999.90;999.90;;;6.00;99.90;;;;;;4959384;28;20162;-92
2021/05/08 01:17:20;;;;;;;1999.90;999.90;;;6.00;99.90;;;;;;4950484;28;20083;-92
2021/05/08 01:19:48;;;;;;;1999.90;999.90;;;6.00;99.90;;;;;;4953828;28;20142;-92
2021/05/08 01:22:16;;;;;;;1999.90;999.90;;;5.90;99.90;;;;;;4956710;28;20142;-92
2021/05/08 01:24:43;;;;;;;1999.90;999.90;;;5.90;99.90;;;;;;4957548;28;20134;-91
2021/05/08 01:27:10;;;;;;;1999.90;999.90;;;6.00;99.90;;;;;;4956292;28;20102;-91
2021/05/08 01:29:38;;;;;;;1999.90;999.90;;;5.90;99.90;;;;;;4957245;28;20043;-90
2021/05/08 01:32:06;;;;;;;1999.90;999.90;;;5.90;99.90;;;;;;4953730;28;20065;-92
2021/05/08 01:34:33;;;;;;;1999.90;999.90;;;5.90;99.90;;;;;;4949534;28;20056;-91
2021/05/08 01:37:02;;;;;;;1999.90;999.90;;;5.90;99.90;;;;;;4954888;28;20063;-91
2021/05/08 01:39:30;;;;;;;1999.90;999.90;;;5.80;99.90;;;;;;4945097;28;20482;-92
2021/05/08 01:41:57;;;;;;;1999.90;999.90;;;5.80;99.90;;;;;;4953586;28;20141;-91
2021/05/08 01:44:24;;;;;;;1999.90;999.90;;;5.80;99.90;;;;;;4959601;28;20057;-91
2021/05/08 01:46:53;;;;;;;1999.90;999.90;;;5.80;99.90;;;;;;4957537;29;20067;-91
2021/05/08 01:49:21;;;;;;;1999.90;999.90;;;5.80;99.90;;;;;;4954106;29;20058;-92
2021/05/08 01:51:48;;;;;;;1999.90;999.90;;;5.80;99.90;;;;;;4950049;28;20051;-92
2021/05/08 01:54:16;;;;;;;1999.90;999.90;;;5.70;99.90;;;;;;4953147;28;20065;-92
2021/05/08 01:56:44;;;;;;;1999.90;999.90;;;5.70;99.90;;;;;;4957660;29;20231;-91
2021/05/08 01:59:14;;;;;;;1999.90;999.90;;;5.70;99.90;;;;;;4956800;28;20402;-92
2021/05/08 02:01:41;;;;;;;1999.90;999.90;;;5.70;99.90;;;;;;4954490;29;20082;-92
2021/05/08 02:04:09;;;;;;;1999.90;999.90;;;5.70;99.90;;;;;;4951008;28;20138;-92
2021/05/08 02:06:37;;;;;;;1999.90;999.90;;;5.70;99.90;;;;;;4962018;28;20458;-91
2021/05/08 02:09:06;;;;;;;1999.90;999.90;;;5.70;99.90;;;;;;4957554;28;20106;-90
2021/05/08 02:11:33;;;;;;;1999.90;999.90;;;5.60;99.90;;;;;;4949201;29;20078;-92
2021/05/08 02:14:01;;;;;;;1999.90;999.90;;;5.60;99.90;;;;;;4955012;28;20059;-91
2021/05/08 02:16:28;;;;;;;1999.90;999.90;;;5.60;99.90;;;;;;4956965;28;20047;-91
2021/05/08 02:18:55;;;;;;;1999.90;999.90;;;5.60;99.90;;;;;;4957270;28;20059;-91
2021/05/08 02:21:22;;;;;;;1999.90;999.90;;;5.60;99.90;;;;;;4956801;28;20054;-92
2021/05/08 02:23:49;;;;;;;1999.90;999.90;;;5.60;99.90;;;;;;4957006;28;20498;-91
2021/05/08 02:26:16;;;;;;;1999.90;999.90;;;5.60;99.90;;;;;;4956741;28;20141;-92
2021/05/08 02:28:43;;;;;;;1999.90;999.90;;;5.60;99.90;;;;;;4956432;28;20067;-92
2021/05/08 02:31:11;;;;;;;1999.90;999.90;;;5.60;99.90;;;;;;4949467;28;20051;-92
2021/05/08 02:33:38;;;;;;;1999.90;999.90;;;5.60;99.90;;;;;;4957216;28;20055;-91
2021/05/08 02:36:05;;;;;;;1999.90;999.90;;;5.70;99.90;;;;;;4963701;28;20470;-92
2021/05/08 02:38:32;;;;;;;1999.90;999.90;;;5.70;99.90;;;;;;4960188;28;20391;-92
2021/05/08 02:41:00;;;;;;;1999.90;999.90;;;5.70;99.90;;;;;;4948634;28;20056;-91
2021/05/08 02:43:27;;;;;;;1999.90;999.90;;;5.70;99.90;;;;;;4951626;28;20074;-92
2021/05/08 02:45:54;;;;;;;1999.90;999.90;;;5.70;99.90;;;;;;4956576;29;20086;-92
2021/05/08 02:48:22;;;;;;;1999.90;999.90;;;5.70;99.90;;;;;;4955799;28;20055;-92
2021/05/08 02:50:49;;;;;;;1999.90;999.90;;;5.70;99.90;;;;;;4953359;28;20399;-91
2021/05/08 02:53:16;;;;;;;1999.90;999.90;;;5.60;99.90;;;;;;4955379;29;20055;-91
2021/05/08 02:55:43;;;;;;;1999.90;999.90;;;5.60;99.90;;;;;;4951843;29;20059;-92
2021/05/08 02:58:10;;;;;;;1999.90;999.90;;;5.70;99.90;;;;;;4960480;28;20110;-92
2021/05/08 03:00:37;;;;;;;1999.90;999.90;;;5.70;99.90;;;;;;4954940;28;20079;-91
2021/05/08 03:03:04;;;;;;;1999.90;999.90;;;5.60;99.90;;;;;;4957480;28;20110;-92
2021/05/08 03:05:32;;;;;;;1999.90;999.90;;;5.60;99.90;;;;;;4947803;29;20407;-91
2021/05/08 03:07:59;;;;;;;1999.90;999.90;;;5.60;99.90;;;;;;4952423;28;20058;-91
2021/05/08 03:10:26;;;;;;;1999.90;999.90;;;5.60;99.90;;;;;;4943835;28;20083;-90
2021/05/08 03:12:53;;;;;;;1999.90;999.90;;;5.60;99.90;;;;;;4946972;28;20146;-90
2021/05/08 03:15:22;;;;;;;1999.90;999.90;;;5.60;99.90;;;;;;4953316;28;20078;-91
2021/05/08 03:17:49;;;;;;;1999.90;999.90;;;5.60;99.90;;;;;;4955930;28;20055;-90
2021/05/08 03:20:16;;;;;;;1999.90;999.90;;;5.60;99.90;;;;;;4953283;28;20366;-91
2021/05/08 03:22:44;;;;;;;1999.90;999.90;;;5.60;99.90;;;;;;4952389;28;20055;-90
2021/05/08 03:25:13;;;;;;;1999.90;999.90;;;5.60;99.90;;;;;;4953687;28;20055;-90
2021/05/08 03:27:40;;;;;;;1999.90;999.90;;;5.60;99.90;;;;;;4950644;29;20051;-90
2021/05/08 03:30:09;;;;;;;1999.90;999.90;;;5.60;99.90;;;;;;4957141;28;20529;-90
2021/05/08 03:32:37;;;;;;;1999.90;999.90;;;5.60;99.90;;;;;;4955518;28;20047;-90
2021/05/08 03:35:08;;;;;;;1999.90;999.90;;;5.60;99.90;;;;;;4955113;28;20062;-91
2021/05/08 03:37:35;;;;;;;1999.90;999.90;;;5.50;99.90;;;;;;4956799;29;20058;-95
2021/05/08 03:40:04;;;;;;;1999.90;999.90;;;5.60;99.90;;;;;;4957265;29;20051;-91
2021/05/08 03:42:31;;;;;;;1999.90;999.90;;;5.60;99.90;;;;;;4954452;28;20047;-90
2021/05/08 03:44:58;;;;;;;1999.90;999.90;;;5.50;99.90;;;;;;4953582;28;20055;-90
2021/05/08 03:47:25;;;;;;;1999.90;999.90;;;5.50;99.90;;;;;;4952378;28;20744;-91
2021/05/08 03:49:53;;;;;;;1999.90;999.90;;;5.50;99.90;;;;;;4954983;28;20075;-90
2021/05/08 03:52:21;;;;;;;1999.90;999.90;;;5.50;99.90;;;;;;4951337;28;20570;-90
2021/05/08 03:54:48;;;;;;;1999.90;999.90;;;5.50;99.90;;;;;;4955756;29;20126;-90
2021/05/08 03:57:16;;;;;;;1999.90;999.90;;;5.50;99.90;;;;;;4954928;28;20055;-91
2021/05/08 03:59:44;;;;;;;1999.90;999.90;;;5.50;99.90;;;;;;4954089;28;20101;-91
2021/05/08 04:02:11;;;;;;;1999.90;999.90;;;5.50;99.90;;;;;;4954601;28;20106;-91
2021/05/08 04:04:38;;;;;;;1999.90;999.90;;;5.50;99.90;;;;;;4949995;28;20063;-90
2021/05/08 04:07:05;;;;;;;1999.90;999.90;;;5.40;99.90;;;;;;4952301;28;20506;-90
2021/05/08 04:09:32;;;;;;;1999.90;999.90;;;5.40;99.90;;;;;;4954777;28;20122;-91
2021/05/08 04:11:59;;;;;;;1999.90;999.90;;;5.40;99.90;;;;;;4955271;28;20086;-91
2021/05/08 04:14:27;;;;;;;1999.90;999.90;;;5.50;99.90;;;;;;4955984;28;20648;-90
2021/05/08 04:16:54;;;;;;;1999.90;999.90;;;5.50;99.90;;;;;;4954646;29;20102;-90
2021/05/08 04:19:21;;;;;;;1999.90;999.90;;;5.50;99.90;;;;;;4955185;28;20058;-90
2021/05/08 04:21:48;;;;;;;1999.90;999.90;;;5.50;99.90;;;;;;4954296;28;20086;-90
2021/05/08 04:24:15;;;;;;;1999.90;999.90;;;5.50;99.90;;;;;;4948265;29;20622;-91
2021/05/08 04:26:42;;;;;;;1999.90;999.90;;;5.50;99.90;;;;;;4954839;28;20070;-90
2021/05/08 04:29:09;;;;;;;1999.90;999.90;;;5.50;99.90;;;;;;4957431;28;20098;-90
2021/05/08 04:31:37;;;;;;;1999.90;999.90;;;5.60;99.90;;;;;;4955446;29;20047;-90
2021/05/08 04:34:04;;;;;;;1999.90;999.90;;;5.60;99.90;;;;;;4960759;28;20074;-90
2021/05/08 04:36:31;;;;;;;1999.90;999.90;;;5.60;99.90;;;;;;4951216;29;20047;-91
2021/05/08 04:38:58;;;;;;;1999.90;999.90;;;5.60;99.90;;;;;;4954702;28;20051;-91
2021/05/08 04:41:25;;;;;;;1999.90;999.90;;;5.60;99.90;;;;;;4954886;28;20109;-91
2021/05/08 04:43:52;;;;;;;1999.90;999.90;;;5.70;99.90;;;;;;4954633;28;20058;-91
2021/05/08 04:46:22;;;;;;;1999.90;999.90;;;5.70;99.90;;;;;;4954598;29;20172;-91
2021/05/08 04:48:53;;;;;;;1999.90;999.90;;;5.70;99.90;;;;;;4954445;28;20063;-90
2021/05/08 04:51:20;;;;;;;1999.90;999.90;;;5.80;99.90;;;;;;4944570;28;20082;-91
2021/05/08 04:53:48;;;;;;;1999.90;999.90;;;5.80;99.90;;;;;;4948325;28;20134;-92
2021/05/08 04:56:15;;;;;;;1999.90;999.90;;;5.80;99.90;;;;;;4953619;28;20058;-92
2021/05/08 04:58:45;;;;;;;1999.90;999.90;;;5.80;99.90;;;;;;4963600;28;20057;-91
2021/05/08 05:01:13;;;;;;;1999.90;999.90;;;5.90;99.90;;;;;;4950297;29;20048;-92
2021/05/08 05:03:40;;;;;;;1999.90;999.90;;;5.90;99.90;;;;;;4949304;28;20059;-92
2021/05/08 05:06:09;;;;;;;1999.90;999.90;;;5.90;99.90;;;;;;4955050;29;20066;-92
2021/05/08 05:08:36;;;;;;;1999.90;999.90;;;5.90;99.90;;;;;;4955059;29;20054;-92
2021/05/08 05:11:03;;;;;;;1999.90;999.90;;;5.90;99.90;;;;;;4944042;28;20052;-92
2021/05/08 05:13:30;;;;;;;1999.90;999.90;;;6.00;99.90;;;;;;4958004;28;20106;-93
2021/05/08 05:15:57;;;;;;;1999.90;999.90;;;6.10;99.90;;;;;;4957304;29;20146;-92
2021/05/08 05:18:24;;;;;;;1999.90;999.90;;;6.10;99.90;;;;;;4951027;28;20051;-92
2021/05/08 05:20:53;;;;;;;1999.90;999.90;;;6.10;99.90;;;;;;4955826;29;20066;-92
2021/05/08 05:23:21;;;;;;;1999.90;999.90;;;6.20;99.90;;;;;;4955597;28;20066;-91
2021/05/08 05:25:49;;;;;;;1999.90;999.90;;;6.30;99.90;;;;;;4958753;29;20487;-91
2021/05/08 05:28:20;;;;;;;1999.90;999.90;;;6.30;99.90;;;;;;4954440;28;20419;-92
2021/05/08 05:30:47;;;;;;;1999.90;999.90;;;6.30;99.90;;;;;;4958548;29;20074;-92
2021/05/08 05:33:15;;;;;;;1999.90;999.90;;;6.40;99.90;;;;;;4955531;28;20102;-93
2021/05/08 05:35:42;;;;;;;1999.90;999.90;;;6.40;99.90;;;;;;4952175;29;20100;-92
2021/05/08 05:38:10;;;;;;;1999.90;999.90;;;6.50;99.90;;;;;;4956539;28;20501;-92
2021/05/08 05:40:38;;;;;;;1999.90;999.90;;;6.50;99.90;;;;;;4957789;28;20110;-92
2021/05/08 08:33:22;;;;;;;1999.90;999.90;;;11.50;98.10;;;;;;5520867;23;20070;31
2021/05/08 08:51:01;;;;;;;1999.90;999.90;;;11.90;97.40;;;;;;5575076;23;20071;-96
2021/05/08 08:53:32;;;;;;;;;;;11.90;97.20;;;;;;4928851;29;20083;-96
2021/05/08 08:56:07;;;;;;;1999.90;999.90;;;12.00;97.20;;;;;;4932415;29;19953;-96
2021/05/08 08:59:01;;;;;;;1999.90;999.90;;;12.00;97.60;;;;;;4933135;29;20052;-96
2021/05/08 09:01:32;;;;;;;1999.90;999.90;;;12.10;97.30;;;;;;4930869;29;20060;-96
2021/05/08 09:04:07;;;;;;;1999.90;999.90;;;12.20;97.30;;;;;;4922040;29;20105;-92
2021/05/08 09:06:39;;;;;;;1999.90;999.90;;;12.30;97.10;;;;;;4920715;29;20710;-93
2021/05/08 09:09:08;;;;;;;1999.90;999.90;;;12.40;97.00;;;;;;4915464;29;20052;-92
2021/05/08 09:11:46;;;;;;;1999.90;999.90;;;12.40;97.20;;;;;;4938523;29;20076;-92
2021/05/08 09:14:19;;;;;;;1999.90;999.90;;;12.60;97.10;;;;;;4932882;29;20063;-92
2021/05/08 09:17:10;;;;;;;1999.90;999.90;;;12.70;97.20;;;;;;4923851;29;20440;-92
2021/05/08 09:19:39;;;;;;;1999.90;999.90;;;12.80;97.10;;;;;;4909634;29;20048;-92
2021/05/08 09:22:35;;;;;;;1999.90;999.90;;;12.90;96.40;;;;;;4920422;29;20143;-92
2021/05/08 09:30:46;;;;;;;1999.90;999.90;;;13.00;95.40;;;;;;4882109;29;19924;-94
2021/05/08 09:33:20;;;;;;;1999.90;999.90;;;13.00;95.30;;;;;;4884052;29;20100;-94
2021/05/08 09:35:59;;;;;;;1999.90;999.90;;;13.00;95.30;;;;;;4883388;29;20112;-93
2021/05/08 09:38:38;;;;;;;1999.90;999.90;;;13.00;95.40;;;;;;4883003;29;20496;-94
2021/05/08 09:41:07;;;;;;;1999.90;999.90;;;13.00;95.60;;;;;;4883664;29;20084;-94
2021/05/08 09:43:50;;;;;;;1999.90;999.90;;;13.10;95.10;;;;;;4883465;29;20052;-94
2021/05/08 09:46:30;;;;;;;1999.90;999.90;;;13.20;96.10;;;;;;4884661;29;20057;-93
2021/05/08 09:49:20;;;;;;;1999.90;999.90;;;13.20;95.00;;;;;;4883980;29;20053;-94
2021/05/08 09:52:18;;;;;;;1999.90;999.90;;;13.40;95.40;;;;;;4884138;29;20407;-95
2021/05/08 09:55:05;;;;;;;1999.90;999.90;;;13.40;94.90;;;;;;4883565;29;20056;-94
2021/05/08 09:58:15;;;;;;;1999.90;999.90;;;13.60;94.30;;;;;;4881714;29;20056;-94
2021/05/08 10:00:42;;;;;;;1999.90;999.90;;;13.60;95.50;;;;;;4881807;29;20065;-91
2021/05/08 10:03:49;;;;;;;1999.90;999.90;;;13.70;94.90;;;;;;4880083;29;20061;-89
2021/05/08 10:06:23;;;;;;;1999.90;999.90;;;13.70;94.60;;;;;;4879034;29;20053;-89
2021/05/08 10:08:52;;;;;;;1999.90;999.90;;;13.60;94.40;;;;;;4878251;29;20045;-90
2021/05/08 10:11:24;;;;;;;1999.90;999.90;;;13.60;94.50;;;;;;4893548;29;20049;-94
2021/05/08 10:13:51;;;;;;;1999.90;999.90;;;13.50;94.70;;;;;;4893811;29;20053;-95
2021/05/08 10:19:19;;;;;;;1999.90;999.90;;;13.50;96.00;;;;;;4880515;29;20056;-91
2021/05/08 10:21:49;;;;;;;1999.90;999.90;;;13.60;96.60;;;;;;4880562;29;20076;-90
2021/05/08 10:24:23;;;;;;;1999.90;999.90;;;13.60;96.20;;;;;;4886064;29;20071;-94
2021/05/08 10:26:57;;;;;;;1999.90;999.90;;;13.60;95.90;;;;;;4882833;29;20535;-93
2021/05/08 10:29:30;;;;;;;1999.90;999.90;;;13.70;96.30;;;;;;4883498;29;20136;-93
2021/05/08 10:32:01;;;;;;;1999.90;999.90;;;13.70;97.20;;;;;;4882795;29;20140;-94
2021/05/08 10:34:32;;;;;;;1999.90;999.90;;;13.70;96.40;;;;;;4883981;29;20432;-93
2021/05/08 10:37:06;;;;;;;1999.90;999.90;;;13.70;96.70;;;;;;4882996;29;20060;-94
2021/05/08 10:39:50;;;;;;;1999.90;999.90;;;13.70;96.70;;;;;;4882826;29;20132;-94
2021/05/08 10:42:34;;;;;;;1999.90;999.90;;;13.50;96.80;;;;;;4882848;29;20056;-94
2021/05/08 10:46:09;;;;;;;1999.90;999.90;;;13.40;97.60;;;;;;4871804;29;20599;-91
2021/05/08 10:49:25;;;;;;;1999.90;999.90;;;13.30;98.30;;;;;;4876744;29;20067;-91
2021/05/08 10:55:25;;;;;;;;;;;;;;;;;;;;;
2021/05/08 10:58:40;;;;;;;1999.90;999.90;;;13.10;99.50;;;;;;4874474;29;20065;-91
2021/05/08 11:01:09;;;;;;;1999.90;999.90;;;13.10;99.90;;;;;;4864253;29;20061;-94
2021/05/08 11:04:07;;;;;;;1999.90;999.90;;;12.90;99.90;;;;;;4864186;29;20064;-95
2021/05/08 11:07:16;;;;;;;1999.90;999.90;;;13.00;99.90;;;;;;4789955;29;20675;-90
2021/05/08 11:10:21;;;;;;;1999.90;999.90;;;12.90;99.90;;;;;;4877029;29;20072;-90
2021/05/08 11:13:24;;;;;;;1999.90;999.90;;;12.90;99.90;;;;;;4851314;29;20413;-91
2021/05/08 11:16:18;;;;;;;1999.90;999.90;;;12.90;99.90;;;;;;4874851;29;20117;-91
2021/05/08 11:18:52;;;;;;;1999.90;999.90;;;12.90;99.90;;;;;;4880221;29;20056;-90
2021/05/08 11:21:49;;;;;;;1999.90;999.90;;;12.80;99.90;;;;;;4879986;29;20481;-91
2021/05/08 12:10:56;;;;;;;1999.90;999.90;;;11.90;99.90;;;;;;6283243;22;1001226;-90
2021/05/08 12:16:46;;;;;;;1999.90;999.90;;;11.60;99.90;;;;;;6263007;22;20616;-90
2021/05/08 12:23:28;;;;;;;1999.90;999.90;;;11.50;99.90;;;;;;6147196;23;20049;-90
2021/05/08 12:26:19;;;;;;;1999.90;999.90;;;11.40;99.90;;;;;;6206554;22;20019;-90
2021/05/08 12:29:03;;;;;;;1999.90;999.90;;;11.30;99.90;;;;;;6316066;22;20321;-90
2021/05/08 12:31:56;;;;;;;1999.90;999.90;;;11.40;99.90;;;;;;6297733;22;20027;-90
2021/05/08 12:34:32;;;;;;;1999.90;999.90;;;11.40;99.90;;;;;;6315726;22;20023;-90
2021/05/08 12:40:30;;;;;;;1999.90;999.90;;;11.30;99.90;;;;;;6298337;22;20026;-90
2021/05/08 12:43:26;;;;;;;1999.90;999.90;;;11.20;99.90;;;;;;6316071;22;20084;-91
2021/05/08 12:46:00;;;;;;;1999.90;999.90;;;11.30;99.90;;;;;;6289519;22;20015;-90
2021/05/08 12:48:34;;;;;;;1999.90;999.90;;;11.20;99.90;;;;;;6316011;22;20023;-90
2021/05/08 12:51:01;;;;;;;1999.90;999.90;;;11.30;99.90;;;;;;6315178;22;20023;-89
2021/05/08 12:53:31;;;;;;;1999.90;999.90;;;11.20;99.90;;;;;;6315738;22;20019;-89
2021/05/08 12:56:02;;;;;;;1999.90;999.90;;;11.10;99.90;;;;;;6314258;22;20741;-90
2021/05/08 12:58:50;;;;;;;1999.90;999.90;;;11.10;99.90;;;;;;6315454;22;20019;-90
2021/05/08 13:01:50;;;;;;;1999.90;999.90;;;11.10;99.90;;;;;;6315906;22;20019;-91
2021/05/08 13:04:19;;;;;;;1999.90;999.90;;;11.10;99.90;;;;;;6190425;23;20021;-91
2021/05/08 13:06:47;;;;;;;1999.90;999.90;;;11.10;99.90;;;;;;6290365;22;20069;-90
2021/05/08 13:09:21;;;;;;;1999.90;999.90;;;11.00;99.90;;;;;;6314361;22;20038;-90
2021/05/08 13:11:52;;;;;;;1999.90;999.90;;;11.00;99.90;;;;;;6308439;22;20094;-90
2021/05/08 13:14:57;;;;;;;1999.90;999.90;;;10.90;99.90;;;;;;6307896;22;20030;-90
2021/05/08 13:17:31;;;;;;;1999.90;999.90;;;11.00;99.90;;;;;;6308473;22;20053;-90
2021/05/08 13:19:58;;;;;;;1999.90;999.90;;;10.90;99.90;;;;;;6308932;22;20015;-90
2021/05/08 13:22:27;;;;;;;1999.90;999.90;;;11.00;99.90;;;;;;6307602;22;20019;-90
2021/05/08 13:24:56;;;;;;;1999.90;999.90;;;11.00;99.90;;;;;;6307738;22;20392;-90
2021/05/08 13:27:23;;;;;;;1999.90;999.90;;;11.00;99.90;;;;;;6307871;22;20065;-90
2021/05/08 13:29:51;;;;;;;1999.90;999.90;;;11.00;99.90;;;;;;6306581;22;20011;-90
2021/05/08 13:32:30;;;;;;;1999.90;999.90;;;11.00;99.90;;;;;;6307641;22;20527;-90
2021/05/08 13:35:03;;;;;;;1999.90;999.90;;;11.00;99.90;;;;;;6308349;22;20039;-90
2021/05/08 13:37:31;;;;;;;1999.90;999.90;;;11.00;99.90;;;;;;6307428;22;20015;-89
2021/05/08 13:40:09;;;;;;;1999.90;999.90;;;10.90;99.90;;;;;;6307725;22;20050;-90
2021/05/08 13:42:42;;;;;;;1999.90;999.90;;;10.90;99.90;;;;;;6310047;22;20026;-95
2021/05/08 13:45:11;;;;;;;1999.90;999.90;;;10.90;99.90;;;;;;6311491;22;20026;-95
2021/05/08 13:47:41;;;;;;;1999.90;999.90;;;11.00;99.90;;;;;;6311470;22;20094;-95
2021/05/08 13:50:10;;;;;;;1999.90;999.90;;;11.00;99.90;;;;;;6311463;22;20027;-95
2021/05/08 13:52:38;;;;;;;1999.90;999.90;;;11.10;99.90;;;;;;6311014;22;20487;-94
2021/05/08 13:55:09;;;;;;;1999.90;999.90;;;11.10;99.90;;;;;;6309937;22;20019;-91
2021/05/08 13:57:50;;;;;;;1999.90;999.90;;;11.10;99.90;;;;;;6307721;22;20098;-91
2021/05/08 14:00:20;;;;;;;1999.90;999.90;;;11.00;99.90;;;;;;6307387;22;20049;-91
2021/05/08 14:02:49;;;;;;;1999.90;999.90;;;11.00;99.90;;;;;;6307526;22;20019;-91
2021/05/08 14:05:18;;;;;;;1999.90;999.90;;;11.00;99.90;;;;;;6307381;22;20019;-91
2021/05/08 14:07:51;;;;;;;1999.90;999.90;;;11.00;99.90;;;;;;6310003;22;20074;-94
2021/05/08 14:10:24;;;;;;;1999.90;999.90;;;11.00;99.90;;;;;;6310954;22;20019;-95
2021/05/08 14:12:55;;;;;;;1999.90;999.90;;;11.00;99.90;;;;;;6312537;22;20041;-94
2021/05/08 14:15:23;;;;;;;1999.90;999.90;;;10.90;99.90;;;;;;6310314;22;20072;-90
2021/05/08 14:17:51;;;;;;;1999.90;999.90;;;10.90;99.90;;;;;;6308316;22;20024;-89
2021/05/08 14:20:23;;;;;;;1999.90;999.90;;;10.90;99.90;;;;;;6307353;22;20438;-90
2021/05/08 14:22:51;;;;;;;1999.90;999.90;;;10.80;99.90;;;;;;6307838;22;20501;-90
2021/05/08 14:25:18;;;;;;;1999.90;999.90;;;10.80;99.90;;;;;;6307509;22;20046;-90
2021/05/08 14:27:46;;;;;;;1999.90;999.90;;;10.80;99.90;;;;;;6307570;22;20019;-89
2021/05/08 14:30:14;;;;;;;1999.90;999.90;;;10.80;99.90;;;;;;6307558;22;20384;-89
2021/05/08 14:32:43;;;;;;;1999.90;999.90;;;10.80;99.90;;;;;;6307809;22;20023;-90
2021/05/08 14:35:12;;;;;;;1999.90;999.90;;;10.80;99.90;;;;;;6308844;22;20023;-90
2021/05/08 14:37:40;;;;;;;1999.90;999.90;;;10.80;99.90;;;;;;6277958;22;20023;-90
2021/05/08 14:40:09;;;;;;;1999.90;999.90;;;10.80;99.90;;;;;;6278036;22;20402;-90
2021/05/08 14:42:44;;;;;;;1999.90;999.90;;;10.80;99.90;;;;;;6278642;22;20023;-90
2021/05/08 14:45:13;;;;;;;1999.90;999.90;;;10.80;99.90;;;;;;6277912;22;20020;-90
2021/05/08 14:47:45;;;;;;;1999.90;999.90;;;10.80;99.90;;;;;;6278749;22;20016;-90
2021/05/08 14:50:14;;;;;;;1999.90;999.90;;;10.80;99.90;;;;;;6278743;22;20019;-90
2021/05/08 14:52:42;;;;;;;1999.90;999.90;;;10.90;99.90;;;;;;6278620;22;20022;-91
2021/05/08 14:56:01;;;;;;;1999.90;999.90;;;10.90;99.90;;;;;;6279709;22;20022;-93
2021/05/08 14:59:01;;;;;;;1999.90;999.90;;;10.90;99.90;;;;;;6195943;22;20021;-95
2021/05/08 15:01:40;;;;;;;1999.90;999.90;;;10.90;99.90;;;;;;6276976;22;20029;-90
2021/05/08 15:04:32;;;;;;;1999.90;999.90;;;10.90;99.90;;;;;;6274119;22;20020;-91
2021/05/08 15:07:03;;;;;;;1999.90;999.90;;;10.90;99.90;;;;;;6276955;22;20015;-91
2021/05/08 15:09:34;;;;;;;1999.90;999.90;;;10.90;99.90;;;;;;6277473;22;20411;-91
2021/05/08 15:12:07;;;;;;;1999.90;999.90;;;10.90;99.90;;;;;;6279123;22;20023;-89
2021/05/08 15:14:42;;;;;;;1999.90;999.90;;;10.90;99.90;;;;;;6272730;22;20024;-91
2021/05/08 15:17:35;;;;;;;1999.90;999.90;;;10.90;99.90;;;;;;6277685;22;20023;-95
2021/05/08 15:20:12;;;;;;;1999.90;999.90;;;11.00;99.90;;;;;;6279772;22;20016;-95
2021/05/08 15:22:41;;;;;;;1999.90;999.90;;;11.00;99.90;;;;;;6283566;22;20030;-95
2021/05/08 15:25:11;;;;;;;1999.90;999.90;;;11.00;99.90;;;;;;6279494;22;20019;-94
2021/05/08 15:27:39;;;;;;;1999.90;999.90;;;11.00;99.90;;;;;;6276691;22;20024;-90
2021/05/08 15:30:07;;;;;;;1999.90;999.90;;;11.10;99.90;;;;;;6275617;22;20016;-90
2021/05/08 15:32:37;;;;;;;1999.90;999.90;;;11.10;99.90;;;;;;6276788;22;20023;-91
2021/05/08 15:35:09;;;;;;;1999.90;999.90;;;11.20;99.90;;;;;;6276987;22;20020;-91
2021/05/08 15:37:37;;;;;;;1999.90;999.90;;;11.20;99.90;;;;;;6276562;22;20022;-90
2021/05/08 15:40:06;;;;;;;1999.90;999.90;;;11.30;99.90;;;;;;6276068;22;20091;-91
2021/05/08 15:42:35;;;;;;;1999.90;999.90;;;11.40;99.90;;;;;;6275868;22;20047;-92
2021/05/08 15:45:07;;;;;;;1999.90;999.90;;;11.50;99.90;;;;;;6274997;22;20020;-91
2021/05/08 15:47:35;;;;;;;1999.90;999.90;;;11.60;99.90;;;;;;6274275;22;20023;-91
2021/05/08 15:50:03;;;;;;;1999.90;999.90;;;11.60;99.90;;;;;;6274896;22;20028;-92
2021/05/08 15:52:32;;;;;;;1999.90;999.90;;;11.70;99.90;;;;;;6275034;22;20022;-92
2021/05/08 15:55:00;;;;;;;1999.90;999.90;;;11.70;99.90;;;;;;6274738;22;20095;-91
2021/05/08 15:57:29;;;;;;;1999.90;999.90;;;11.70;99.90;;;;;;6274394;22;20446;-91
2021/05/08 15:59:57;;;;;;;1999.90;999.90;;;11.80;99.90;;;;;;6274491;22;20015;-91
2021/05/08 16:02:25;;;;;;;1999.90;999.90;;;11.90;99.90;;;;;;6283207;22;20034;-96
2021/05/08 16:04:59;;;;;;;1999.90;999.90;;;11.90;99.90;;;;;;6283538;22;20034;-95
2021/05/08 16:07:26;;;;;;;1999.90;999.90;;;12.00;99.90;;;;;;6281376;22;20012;-95
2021/05/08 16:09:55;;;;;;;1999.90;999.90;;;12.00;99.90;;;;;;6280805;22;20016;-95
2021/05/08 16:12:28;;;;;;;1999.90;999.90;;;12.10;99.90;;;;;;6280420;22;20016;-95
2021/05/08 16:14:58;;;;;;;1999.90;999.90;;;12.20;99.90;;;;;;6280236;22;20359;-95
2021/05/08 16:17:25;;;;;;;1999.90;999.90;;;12.20;99.90;;;;;;6280079;22;20019;-96
2021/05/08 16:19:57;;;;;;;1999.90;999.90;;;12.30;99.90;;;;;;6284354;22;20443;-95
2021/05/08 16:22:34;;;;;;;1999.90;999.90;;;12.30;99.90;;;;;;6283988;22;20019;-96
2021/05/08 16:25:05;;;;;;;1999.90;999.90;;;12.40;99.90;;;;;;6283536;22;20020;-95
2021/05/08 16:27:45;;;;;;;1999.90;999.90;;;12.50;99.90;;;;;;6287091;22;20028;-96
2021/05/08 16:30:22;;;;;;;1999.90;999.90;;;12.60;99.90;;;;;;6293261;22;20039;-95
2021/05/08 16:36:11;;;;;;;1999.90;999.90;;;12.70;99.90;;;;;;6293029;22;20031;-95
2021/05/08 16:43:00;;;;;;;1999.90;999.90;;;12.90;99.90;;;;;;6104984;23;20029;-95
2021/05/08 16:45:28;;;;;;;1999.90;999.90;;;13.00;99.90;;;;;;6108769;23;20040;-95
2021/05/08 16:47:59;;;;;;;1999.90;999.90;;;13.00;99.90;;;;;;6109332;23;20098;-95
2021/05/08 16:50:33;;;;;;;1999.90;999.90;;;13.10;99.90;;;;;;6109946;23;20025;-96
2021/05/08 16:53:03;;;;;;;1999.90;999.90;;;13.20;99.90;;;;;;6110253;23;20358;-95